« Back
NWS Peachtree City, Ga » Text Product » ATL Terminal Aerodrome Forecast


Printer-friendly Version
Current Version              Previous Versions:   1  2  3  4  5  6  7  8  9  

Terminal Aerodrome Forecast

281
FTUS42 KFFC 201500 AAB
TAFATL
TAF AMD
KATL 201558Z 2016/2118 04015G25KT P6SM FEW045
     FM202000 07012G18KT P6SM SCT050
     FM210000 07006KT P6SM SKC
     FM211500 31006KT P6SM SCT250=

USA.gov is the U.S. government's official web portal to all federal, state and local government web resources and services.